Time;durP1;ratioP1;P1;durP2;ratioP2;P2;SDS_P1;SDS_P2;PMS_P1;PMS_P2;Temp;Humidity;BMP_temperature;BMP_pressure;BME280_temperature;BME280_humidity;BME280_pressure;Samples;Min_cycle;Max_cycle;Signal;HPM_P1;HPM_P2
2021/06/25 00:00:57;;;;;;;6.90;3.72;;;16.60;77.40;;;;;;5032537;28;20033;-70
2021/06/25 00:03:23;;;;;;;6.85;3.40;;;16.60;77.70;;;;;;5037571;28;20033;-70
2021/06/25 00:05:49;;;;;;;5.60;3.40;;;16.60;77.90;;;;;;5037446;28;20029;-71
2021/06/25 00:08:15;;;;;;;4.28;3.42;;;16.60;78.10;;;;;;5032334;28;20018;-70
2021/06/25 00:10:41;;;;;;;6.00;3.92;;;16.60;78.40;;;;;;5038870;28;20495;-71
2021/06/25 00:13:06;;;;;;;7.68;3.72;;;16.60;78.70;;;;;;5026135;28;20380;-70
2021/06/25 00:15:32;;;;;;;5.97;3.75;;;16.60;78.70;;;;;;5026373;28;20038;-70
2021/06/25 00:17:58;;;;;;;7.10;3.90;;;16.50;78.80;;;;;;5025341;28;20074;-70
2021/06/25 00:20:25;;;;;;;5.90;3.88;;;16.60;79.20;;;;;;5025596;28;20034;-70
2021/06/25 00:22:51;;;;;;;6.25;3.83;;;16.50;79.50;;;;;;5014702;28;20036;-70
2021/06/25 00:25:17;;;;;;;5.22;3.75;;;16.50;79.80;;;;;;5036061;28;20030;-71
2021/06/25 00:27:43;;;;;;;5.18;3.75;;;16.50;80.20;;;;;;5032971;28;20163;-71
2021/06/25 00:30:09;;;;;;;4.80;3.58;;;16.50;80.30;;;;;;5032197;28;20725;-70
2021/06/25 00:32:35;;;;;;;8.13;4.35;;;16.40;80.40;;;;;;5035835;28;20506;-70
2021/06/25 00:35:01;;;;;;;7.90;4.43;;;16.40;80.50;;;;;;5035341;28;20033;-70
2021/06/25 00:37:26;;;;;;;5.65;4.35;;;16.40;80.80;;;;;;5033409;28;20105;-70
2021/06/25 00:39:52;;;;;;;9.20;4.45;;;16.40;80.90;;;;;;5042538;28;20043;-70
2021/06/25 00:42:18;;;;;;;5.72;4.15;;;16.30;80.90;;;;;;5032776;28;20213;-70
2021/06/25 00:44:44;;;;;;;7.15;4.18;;;16.30;81.20;;;;;;5026959;28;20159;-70
2021/06/25 00:47:11;;;;;;;6.30;4.13;;;16.30;81.30;;;;;;5036038;28;20146;-70
2021/06/25 00:49:38;;;;;;;6.80;4.10;;;16.30;81.60;;;;;;5036063;28;20021;-70
2021/06/25 00:52:05;;;;;;;8.02;4.60;;;16.20;81.60;;;;;;5031467;28;20030;-71
2021/06/25 00:54:31;;;;;;;7.38;4.60;;;16.20;81.70;;;;;;5031391;28;20112;-70
2021/06/25 00:56:57;;;;;;;6.65;3.78;;;16.20;82.00;;;;;;5039791;28;20653;-70
2021/06/25 00:59:23;;;;;;;7.80;4.68;;;16.20;82.40;;;;;;5036544;28;20033;-70
2021/06/25 01:01:48;;;;;;;7.43;4.65;;;16.10;82.50;;;;;;5037738;28;20029;-70
2021/06/25 01:04:14;;;;;;;5.93;4.05;;;16.10;83.00;;;;;;5039020;28;20104;-70
2021/06/25 01:06:41;;;;;;;8.02;4.45;;;16.10;82.80;;;;;;5037749;28;20443;-70
2021/06/25 01:09:08;;;;;;;8.32;4.70;;;16.10;83.00;;;;;;5012515;28;20067;-70
2021/06/25 01:11:36;;;;;;;9.50;4.65;;;16.00;83.20;;;;;;5028572;28;20038;-71
2021/06/25 01:14:02;;;;;;;7.55;4.22;;;16.00;83.30;;;;;;5035212;28;20024;-72
2021/06/25 01:16:28;;;;;;;7.75;4.35;;;16.00;83.30;;;;;;5018115;28;20071;-71
2021/06/25 01:18:54;;;;;;;6.80;4.35;;;16.00;83.80;;;;;;5034588;28;20124;-71
2021/06/25 01:21:20;;;;;;;6.40;4.15;;;16.00;84.00;;;;;;5027351;28;20027;-71
2021/06/25 01:23:46;;;;;;;6.95;4.53;;;15.90;84.40;;;;;;5011673;28;20421;-72
2021/06/25 01:26:12;;;;;;;8.75;4.43;;;15.90;84.30;;;;;;5038931;28;20078;-71
2021/06/25 01:28:38;;;;;;;6.95;4.72;;;15.90;84.50;;;;;;5018595;28;20029;-71
2021/06/25 01:31:05;;;;;;;8.93;4.82;;;15.80;84.90;;;;;;5018432;28;20030;-71
2021/06/25 01:33:32;;;;;;;8.15;4.30;;;15.80;84.80;;;;;;5034239;28;20021;-71
2021/06/25 01:35:58;;;;;;;9.00;5.13;;;15.80;84.90;;;;;;5035772;28;20120;-71
2021/06/25 01:38:25;;;;;;;7.53;5.25;;;15.80;85.20;;;;;;5030108;28;20108;-71
2021/06/25 01:40:51;;;;;;;8.52;4.80;;;15.80;85.60;;;;;;5032885;28;20112;-72
2021/06/25 01:43:18;;;;;;;7.93;5.07;;;15.80;86.00;;;;;;5014141;28;20033;-71
2021/06/25 01:45:44;;;;;;;6.78;5.13;;;15.80;85.90;;;;;;5015108;28;20056;-72
2021/06/25 01:48:11;;;;;;;7.15;4.85;;;15.70;86.20;;;;;;5040894;28;20433;-71
2021/06/25 01:50:39;;;;;;;9.75;4.82;;;15.70;86.30;;;;;;5031950;28;20025;-71
2021/06/25 01:53:12;;;;;;;9.50;5.50;;;15.70;86.40;;;;;;5029580;28;20096;-71
2021/06/25 01:55:41;;;;;;;9.82;6.32;;;15.70;86.50;;;;;;5029799;28;20483;-71
2021/06/25 01:58:11;;;;;;;8.65;5.80;;;15.70;86.40;;;;;;5033059;28;20033;-71
2021/06/25 02:00:39;;;;;;;8.82;6.00;;;15.60;86.50;;;;;;5024826;28;20029;-71
2021/06/25 02:03:05;;;;;;;9.50;5.90;;;15.60;86.60;;;;;;5031849;28;20033;-71
2021/06/25 02:05:31;;;;;;;12.88;6.88;;;15.60;86.60;;;;;;5012340;28;20448;-70
2021/06/25 02:07:56;;;;;;;11.82;8.10;;;15.60;86.60;;;;;;5030381;28;20064;-71
2021/06/25 02:10:22;;;;;;;16.48;9.75;;;15.60;86.80;;;;;;5036466;28;20081;-71
2021/06/25 02:12:48;;;;;;;12.90;8.20;;;15.60;86.90;;;;;;5030616;28;20435;-71
2021/06/25 02:15:14;;;;;;;14.60;8.57;;;15.60;87.00;;;;;;5034204;28;20033;-71
2021/06/25 02:17:40;;;;;;;11.98;8.02;;;15.50;87.10;;;;;;5038395;28;20041;-71
2021/06/25 02:20:08;;;;;;;12.25;8.57;;;15.50;87.10;;;;;;5030980;28;20036;-70
2021/06/25 02:22:35;;;;;;;13.20;8.35;;;15.40;87.30;;;;;;5031555;28;20025;-71
2021/06/25 02:25:02;;;;;;;14.75;9.68;;;15.50;87.40;;;;;;5035204;28;20045;-71
2021/06/25 02:27:28;;;;;;;13.55;8.65;;;15.40;87.50;;;;;;5032087;28;20471;-71
2021/06/25 02:29:54;;;;;;;14.90;9.02;;;15.40;87.50;;;;;;5033547;28;20152;-71
2021/06/25 02:32:19;;;;;;;13.10;9.20;;;15.40;87.60;;;;;;5036385;28;20029;-71
2021/06/25 02:34:45;;;;;;;15.07;9.15;;;15.40;87.70;;;;;;5030935;28;20037;-71
2021/06/25 02:37:11;;;;;;;13.60;9.02;;;15.40;87.80;;;;;;5019794;28;20509;-71
2021/06/25 02:39:37;;;;;;;11.77;9.25;;;15.40;87.70;;;;;;5018825;28;20040;-71
2021/06/25 02:42:04;;;;;;;14.48;9.65;;;15.40;87.60;;;;;;5035533;28;20116;-70
2021/06/25 02:44:31;;;;;;;16.95;10.75;;;15.30;87.60;;;;;;5033577;28;20112;-70
2021/06/25 02:46:57;;;;;;;16.35;9.88;;;15.30;87.60;;;;;;5038571;28;20211;-70
2021/06/25 02:49:22;;;;;;;18.23;10.07;;;15.30;87.90;;;;;;5013931;28;20096;-71
2021/06/25 02:51:48;;;;;;;17.15;10.50;;;15.30;87.90;;;;;;5029776;28;20475;-70
2021/06/25 02:54:14;;;;;;;15.55;10.15;;;15.30;87.80;;;;;;5035620;28;20021;-71
2021/06/25 02:56:39;;;;;;;17.30;10.23;;;15.30;87.80;;;;;;5038028;28;20086;-70
2021/06/25 02:59:05;;;;;;;16.48;10.05;;;15.30;87.80;;;;;;5005128;28;20380;-70
2021/06/25 03:01:31;;;;;;;15.27;10.70;;;15.30;88.00;;;;;;5029947;28;20025;-71
2021/06/25 03:03:57;;;;;;;16.92;10.88;;;15.30;88.20;;;;;;5033232;28;20033;-71
2021/06/25 03:06:23;;;;;;;16.20;10.43;;;15.30;88.20;;;;;;5030968;28;20474;-71
2021/06/25 03:08:48;;;;;;;14.15;9.63;;;15.30;88.30;;;;;;5038407;28;20041;-71
2021/06/25 03:11:14;;;;;;;16.98;11.10;;;15.20;88.40;;;;;;5040871;28;20017;-71
2021/06/25 03:13:40;;;;;;;18.40;10.90;;;15.20;88.40;;;;;;5029289;28;20036;-71
2021/06/25 03:16:06;;;;;;;15.48;10.13;;;15.20;88.70;;;;;;5030987;28;20402;-70
2021/06/25 03:18:31;;;;;;;14.95;9.25;;;15.20;88.70;;;;;;5038011;28;20029;-71
2021/06/25 03:20:57;;;;;;;18.80;10.15;;;15.20;88.60;;;;;;5035457;28;20104;-71
2021/06/25 03:23:23;;;;;;;17.98;10.55;;;15.20;88.70;;;;;;5018220;28;20036;-71
2021/06/25 03:25:49;;;;;;;16.02;9.68;;;15.20;89.00;;;;;;5036895;28;20037;-71
2021/06/25 03:28:15;;;;;;;12.77;9.23;;;15.10;89.10;;;;;;5035344;28;20383;-71
2021/06/25 03:30:40;;;;;;;15.35;9.50;;;15.10;89.20;;;;;;5037448;28;20030;-71
2021/06/25 03:33:07;;;;;;;17.45;9.27;;;15.10;89.10;;;;;;5039921;28;20039;-71
2021/06/25 03:35:33;;;;;;;12.85;8.48;;;15.10;89.00;;;;;;5035560;28;20053;-71
2021/06/25 03:37:59;;;;;;;13.90;9.55;;;15.20;89.10;;;;;;5034044;28;20032;-71
2021/06/25 03:40:27;;;;;;;14.23;8.73;;;15.10;89.10;;;;;;5032102;28;20075;-72
2021/06/25 03:42:53;;;;;;;16.80;9.15;;;15.10;89.10;;;;;;5030829;28;20414;-71
2021/06/25 03:45:19;;;;;;;13.95;9.00;;;15.10;89.00;;;;;;5035180;28;20048;-71
2021/06/25 03:47:44;;;;;;;14.55;8.25;;;15.20;89.00;;;;;;5035728;28;20383;-71
2021/06/25 03:50:12;;;;;;;12.95;8.25;;;15.20;89.30;;;;;;5034579;28;20108;-71
2021/06/25 03:52:38;;;;;;;17.45;9.52;;;15.20;89.30;;;;;;5040111;28;20067;-71
2021/06/25 03:55:09;;;;;;;13.48;7.72;;;15.20;89.00;;;;;;5027111;28;20046;-71
2021/06/25 03:57:35;;;;;;;13.65;9.25;;;15.20;89.20;;;;;;5034422;28;20383;-71
2021/06/25 04:00:00;;;;;;;18.23;9.75;;;15.20;89.10;;;;;;5039533;28;20040;-71
2021/06/25 04:02:26;;;;;;;12.50;9.15;;;15.20;89.40;;;;;;5013123;28;20763;-71
2021/06/25 04:04:52;;;;;;;14.73;9.45;;;15.20;89.10;;;;;;5038625;28;20116;-71
2021/06/25 04:07:17;;;;;;;13.30;9.05;;;15.20;88.60;;;;;;5035942;28;20037;-71
2021/06/25 04:09:43;;;;;;;12.70;8.50;;;15.30;88.50;;;;;;5038827;28;20053;-71
2021/06/25 04:12:09;;;;;;;15.50;7.68;;;15.30;88.60;;;;;;5034282;28;20087;-71
2021/06/25 04:14:35;;;;;;;14.55;8.68;;;15.30;89.00;;;;;;5017083;28;20113;-71
2021/06/25 04:17:00;;;;;;;13.68;8.35;;;15.20;88.80;;;;;;5017104;28;20112;-71
2021/06/25 04:19:26;;;;;;;16.52;9.02;;;15.30;88.20;;;;;;5038265;28;20036;-72
2021/06/25 04:21:52;;;;;;;13.18;8.77;;;15.30;88.20;;;;;;5041049;28;20108;-71
2021/06/25 04:24:18;;;;;;;15.45;8.55;;;15.30;88.10;;;;;;5037997;28;20025;-71
2021/06/25 04:26:43;;;;;;;13.95;8.65;;;15.30;88.10;;;;;;5032254;28;20029;-71
2021/06/25 04:29:11;;;;;;;12.65;8.45;;;15.30;88.20;;;;;;5034385;28;20025;-71
2021/06/25 04:31:39;;;;;;;11.63;8.02;;;15.30;88.10;;;;;;5036429;28;20041;-71
2021/06/25 04:34:04;;;;;;;12.77;7.80;;;15.30;88.60;;;;;;5017145;28;20103;-71
2021/06/25 04:36:31;;;;;;;12.02;8.55;;;15.30;88.70;;;;;;5039128;28;20801;-71
2021/06/25 04:38:57;;;;;;;17.00;9.25;;;15.30;88.80;;;;;;5035325;28;20071;-71
2021/06/25 04:41:22;;;;;;;18.27;8.35;;;15.30;88.30;;;;;;5035911;28;20064;-71
2021/06/25 04:43:48;;;;;;;14.57;8.77;;;15.30;88.60;;;;;;5032536;28;20204;-71
2021/06/25 04:46:14;;;;;;;19.88;8.80;;;15.30;88.70;;;;;;5034432;28;20117;-71
2021/06/25 04:48:41;;;;;;;14.98;8.95;;;15.30;88.10;;;;;;5030223;28;20033;-71
2021/06/25 04:51:10;;;;;;;16.88;9.05;;;15.30;88.30;;;;;;5036120;28;20029;-71
2021/06/25 04:53:35;;;;;;;16.85;8.43;;;15.30;88.60;;;;;;5035882;28;20548;-71
2021/06/25 04:56:01;;;;;;;17.35;8.40;;;15.30;88.80;;;;;;5036423;28;20071;-71
2021/06/25 04:58:28;;;;;;;14.82;8.50;;;15.30;88.90;;;;;;5032763;28;20033;-71
2021/06/25 05:00:54;;;;;;;13.65;8.40;;;15.30;89.00;;;;;;5035804;28;20033;-71
2021/06/25 05:03:20;;;;;;;14.43;9.02;;;15.30;88.90;;;;;;5034220;28;20159;-71
2021/06/25 05:05:45;;;;;;;14.20;8.40;;;15.30;88.90;;;;;;5021160;28;20116;-71
2021/06/25 05:08:12;;;;;;;15.27;8.60;;;15.30;88.90;;;;;;5035178;28;20087;-70
2021/06/25 05:10:38;;;;;;;16.52;8.02;;;15.40;88.60;;;;;;5027381;28;20028;-72
2021/06/25 05:13:04;;;;;;;11.88;7.65;;;15.40;88.80;;;;;;5045897;22;20521;-74
2021/06/25 05:15:30;;;;;;;19.05;8.55;;;15.40;89.00;;;;;;4955619;28;20044;-73
2021/06/25 05:17:55;;;;;;;12.82;8.57;;;15.40;89.00;;;;;;4963340;28;20378;-74
2021/06/25 05:20:21;;;;;;;13.32;8.30;;;15.40;89.20;;;;;;4957047;28;20346;-71
2021/06/25 05:22:47;;;;;;;14.25;8.00;;;15.50;89.30;;;;;;4955903;28;20577;-73
2021/06/25 05:25:14;;;;;;;15.40;8.00;;;15.50;89.20;;;;;;4952746;28;20042;-72
2021/06/25 05:27:40;;;;;;;11.90;8.75;;;15.50;89.20;;;;;;4959981;28;20053;-75
2021/06/25 05:30:07;;;;;;;15.13;9.13;;;15.50;89.10;;;;;;4964917;28;20024;-73
2021/06/25 05:32:34;;;;;;;13.68;8.15;;;15.50;89.30;;;;;;4953315;28;20031;-73
2021/06/25 05:35:01;;;;;;;8.13;5.88;;;15.60;89.50;;;;;;4939480;28;20576;-72
2021/06/25 05:37:26;;;;;;;11.77;7.90;;;15.60;90.60;;;;;;4944661;28;20036;-73
2021/06/25 05:39:52;;;;;;;14.85;8.70;;;15.90;89.60;;;;;;4956077;28;20103;-72
2021/06/25 05:42:18;;;;;;;13.23;7.78;;;15.90;88.50;;;;;;4946128;28;20026;-73
2021/06/25 05:44:43;;;;;;;13.80;7.68;;;15.90;88.90;;;;;;5010282;28;20038;-73
2021/06/25 05:47:09;;;;;;;12.82;7.97;;;15.90;89.00;;;;;;4957985;28;20037;-73
2021/06/25 05:49:35;;;;;;;10.38;6.78;;;15.90;88.90;;;;;;4946027;28;20036;-73
2021/06/25 05:52:01;;;;;;;12.88;6.88;;;15.80;88.10;;;;;;4943694;28;20032;-74
2021/06/25 05:54:26;;;;;;;10.18;6.28;;;15.80;87.00;;;;;;4955828;28;20431;-74
2021/06/25 05:56:53;;;;;;;9.93;6.72;;;15.80;86.60;;;;;;4949551;28;20047;-73
2021/06/25 05:59:19;;;;;;;9.10;6.70;;;15.90;86.60;;;;;;4952042;28;20038;-73
2021/06/25 06:01:44;;;;;;;9.70;6.55;;;15.90;86.50;;;;;;4944561;28;20027;-73
2021/06/25 06:04:10;;;;;;;9.25;6.97;;;16.00;86.10;;;;;;4987529;28;20513;-75
2021/06/25 06:06:36;;;;;;;12.00;6.75;;;16.00;86.30;;;;;;4950924;28;20038;-74
2021/06/25 06:09:03;;;;;;;11.20;6.80;;;16.00;86.10;;;;;;4959085;28;20032;-74
2021/06/25 06:11:29;;;;;;;9.95;7.15;;;16.00;85.50;;;;;;4944703;28;20125;-75
2021/06/25 06:13:55;;;;;;;11.65;7.72;;;16.00;85.50;;;;;;4960252;28;20075;-74
2021/06/25 06:16:21;;;;;;;10.38;6.13;;;16.10;86.10;;;;;;4939612;28;20018;-76
2021/06/25 06:18:47;;;;;;;11.98;7.25;;;16.10;85.70;;;;;;4955626;28;20039;-76
2021/06/25 06:21:15;;;;;;;12.80;6.88;;;16.10;84.30;;;;;;4946486;28;20086;-77
2021/06/25 06:32:03;;;;;;;7.20;5.28;;;16.20;84.90;;;;;;4916243;28;20032;-76
2021/06/25 06:34:34;;;;;;;10.52;5.38;;;16.20;84.10;;;;;;4927468;28;20442;-76
2021/06/25 06:37:00;;;;;;;9.63;5.75;;;16.30;84.70;;;;;;4915429;28;20122;-76
2021/06/25 06:39:28;;;;;;;13.80;6.30;;;16.40;84.70;;;;;;4922034;28;20035;-75
2021/06/25 06:41:54;;;;;;;8.15;5.30;;;16.50;83.10;;;;;;4929368;28;20039;-75
2021/06/25 06:44:20;;;;;;;20.48;5.25;;;16.50;83.80;;;;;;4958009;28;20109;-76
2021/06/25 06:46:46;;;;;;;8.35;4.90;;;16.60;82.00;;;;;;4954789;28;20033;-76
2021/06/25 06:49:11;;;;;;;10.02;5.07;;;16.60;81.50;;;;;;4921020;28;20174;-77
2021/06/25 06:51:39;;;;;;;8.32;5.78;;;16.60;80.90;;;;;;4984916;28;20095;-76
2021/06/25 06:54:05;;;;;;;8.57;4.97;;;16.70;80.10;;;;;;4992555;28;20498;-75
2021/06/25 06:56:31;;;;;;;8.65;5.03;;;16.80;80.00;;;;;;4935386;28;20026;-74
2021/06/25 06:59:00;;;;;;;9.80;4.90;;;16.80;79.20;;;;;;4981523;28;20028;-72
2021/06/25 07:01:28;;;;;;;5.57;4.18;;;16.80;79.50;;;;;;4991599;28;20679;-72
2021/06/25 07:03:53;;;;;;;8.18;4.82;;;16.80;78.70;;;;;;4951527;28;20034;-73
2021/06/25 07:06:19;;;;;;;7.95;4.18;;;16.80;79.20;;;;;;4954728;28;20035;-73
2021/06/25 07:08:46;;;;;;;5.40;3.75;;;16.90;77.80;;;;;;4941846;28;20020;-80
2021/06/25 07:11:11;;;;;;;7.72;4.35;;;16.80;78.70;;;;;;4950151;28;20827;-74
2021/06/25 07:13:37;;;;;;;8.65;4.20;;;16.80;78.90;;;;;;4938611;28;20032;-74
2021/06/25 07:16:05;;;;;;;6.25;3.17;;;16.80;78.10;;;;;;4935170;28;20095;-73
2021/06/25 07:18:31;;;;;;;7.90;3.60;;;16.90;77.50;;;;;;4926973;28;20027;-74
2021/06/25 07:20:56;;;;;;;6.47;3.80;;;16.90;77.30;;;;;;4944354;28;20429;-73
2021/06/25 07:23:22;;;;;;;7.15;3.70;;;16.90;78.50;;;;;;4926520;28;20050;-74
2021/06/25 07:25:48;;;;;;;5.72;3.60;;;17.00;79.30;;;;;;4937077;28;20392;-73
2021/06/25 07:28:14;;;;;;;4.25;3.20;;;17.00;77.20;;;;;;4944392;28;20026;-74
2021/06/25 07:30:41;;;;;;;5.75;3.90;;;17.00;77.60;;;;;;4944455;28;20041;-75
2021/06/25 07:33:06;;;;;;;6.82;4.47;;;17.00;78.10;;;;;;4926789;28;20024;-74
2021/06/25 07:35:32;;;;;;;7.22;3.33;;;17.00;78.30;;;;;;4940613;28;20047;-74
2021/06/25 07:37:58;;;;;;;4.32;2.85;;;17.10;77.30;;;;;;4958770;28;20040;-73
2021/06/25 07:40:24;;;;;;;4.55;3.38;;;17.20;77.90;;;;;;4957254;28;20105;-73
2021/06/25 07:42:50;;;;;;;6.55;3.70;;;17.20;77.90;;;;;;4939018;28;20109;-74
2021/06/25 07:45:16;;;;;;;6.10;4.03;;;17.20;77.80;;;;;;4939750;28;20032;-73
2021/06/25 07:47:44;;;;;;;6.70;3.92;;;17.30;78.30;;;;;;4953558;28;20032;-73
2021/06/25 07:50:13;;;;;;;5.38;3.20;;;17.30;77.70;;;;;;4941553;28;20082;-73
2021/06/25 07:52:39;;;;;;;6.50;4.03;;;17.30;76.70;;;;;;4955042;28;20028;-73
2021/06/25 07:55:07;;;;;;;6.00;3.90;;;17.30;76.50;;;;;;4989867;28;20059;-73
2021/06/25 07:57:33;;;;;;;6.57;3.28;;;17.30;76.80;;;;;;4954635;28;20032;-75
2021/06/25 07:59:59;;;;;;;5.47;3.92;;;17.30;78.40;;;;;;4946375;28;20032;-74
2021/06/25 08:02:25;;;;;;;6.18;4.20;;;17.30;79.40;;;;;;4939079;28;20106;-74
2021/06/25 08:04:50;;;;;;;5.25;3.75;;;17.30;78.90;;;;;;4938146;28;20039;-74
2021/06/25 08:07:17;;;;;;;5.35;4.18;;;17.40;79.10;;;;;;4934736;28;20022;-74
2021/06/25 08:09:43;;;;;;;7.32;4.55;;;17.50;77.70;;;;;;4950742;28;20029;-74
2021/06/25 08:12:11;;;;;;;5.40;3.60;;;17.50;78.80;;;;;;4946644;28;20649;-74
2021/06/25 08:14:37;;;;;;;5.97;3.83;;;17.50;78.40;;;;;;4948795;28;20115;-73
2021/06/25 08:17:05;;;;;;;6.57;4.28;;;17.50;77.70;;;;;;4986134;28;20101;-75
2021/06/25 08:19:31;;;;;;;5.53;3.92;;;17.60;77.30;;;;;;4936314;28;20032;-75
2021/06/25 08:21:56;;;;;;;5.07;3.75;;;17.60;77.20;;;;;;4941449;28;20456;-74
2021/06/25 08:24:23;;;;;;;6.28;4.28;;;17.60;77.70;;;;;;4961719;28;20485;-74
2021/06/25 08:26:49;;;;;;;5.45;3.80;;;17.60;77.40;;;;;;4980847;28;20401;-74
2021/06/25 08:29:15;;;;;;;7.30;3.67;;;17.70;78.00;;;;;;4940629;28;20021;-75
2021/06/25 08:31:41;;;;;;;7.10;4.13;;;17.70;77.90;;;;;;4955129;28;20490;-74
2021/06/25 08:34:10;;;;;;;7.40;4.25;;;17.80;78.00;;;;;;4958861;28;20032;-74
2021/06/25 08:36:37;;;;;;;6.60;4.75;;;17.80;76.90;;;;;;4941182;28;20039;-72
2021/06/25 08:39:04;;;;;;;7.25;4.32;;;17.90;75.10;;;;;;4990041;28;20395;-72
2021/06/25 08:41:30;;;;;;;6.35;4.25;;;18.00;74.70;;;;;;4941204;28;20478;-73
2021/06/25 08:43:56;;;;;;;6.03;4.68;;;18.00;74.70;;;;;;4941212;28;20029;-72
2021/06/25 08:46:22;;;;;;;6.07;4.82;;;18.00;74.30;;;;;;4989401;28;20178;-73
2021/06/25 08:48:51;;;;;;;4.90;3.95;;;18.00;74.10;;;;;;4941230;28;20036;-73
2021/06/25 08:51:17;;;;;;;7.88;4.10;;;18.10;73.90;;;;;;4939846;28;20028;-76
2021/06/25 08:53:43;;;;;;;6.70;3.55;;;18.20;74.70;;;;;;4940034;28;20030;-75
2021/06/25 08:56:09;;;;;;;5.55;4.18;;;18.20;74.70;;;;;;4993358;28;20042;-72
2021/06/25 08:58:35;;;;;;;8.60;5.13;;;18.30;74.20;;;;;;4955265;28;20402;-76
2021/06/25 09:01:01;;;;;;;7.00;4.30;;;18.30;73.10;;;;;;4935171;28;20047;-76
2021/06/25 09:03:30;;;;;;;6.38;4.20;;;18.40;73.40;;;;;;4961797;28;20045;-75
2021/06/25 09:06:13;;;;;;;7.25;4.35;;;18.40;73.40;;;;;;4946662;28;20153;-75
2021/06/25 09:08:40;;;;;;;7.25;4.25;;;18.40;74.10;;;;;;4949121;28;20505;-74
2021/06/25 09:11:19;;;;;;;5.88;3.47;;;18.50;72.50;;;;;;4951528;28;20047;-75
2021/06/25 09:13:45;;;;;;;5.30;3.55;;;18.50;73.60;;;;;;4953015;28;20036;-75
2021/06/25 09:16:31;;;;;;;6.72;4.80;;;18.50;72.50;;;;;;4946920;28;20043;-75
2021/06/25 09:19:02;;;;;;;5.38;3.95;;;18.50;72.60;;;;;;4948989;28;20536;-75
2021/06/25 09:21:30;;;;;;;5.15;4.28;;;18.60;73.60;;;;;;4947266;28;20037;-74
2021/06/25 09:23:56;;;;;;;4.53;3.80;;;18.70;70.60;;;;;;4944909;28;20111;-74
2021/06/25 09:26:28;;;;;;;5.93;4.25;;;19.00;70.10;;;;;;4941236;28;20123;-75
2021/06/25 09:29:13;;;;;;;6.13;4.15;;;19.00;70.50;;;;;;4949232;28;20031;-75
2021/06/25 09:31:39;;;;;;;5.13;3.70;;;18.90;70.70;;;;;;4948969;28;20024;-75
2021/06/25 09:34:05;;;;;;;6.57;4.03;;;18.80;70.70;;;;;;4935172;28;20043;-75
2021/06/25 09:36:33;;;;;;;5.78;4.30;;;18.80;71.20;;;;;;4935567;28;20028;-75
2021/06/25 09:39:13;;;;;;;5.25;3.78;;;18.80;71.70;;;;;;4941819;28;20077;-74
2021/06/25 09:41:44;;;;;;;4.93;3.40;;;18.80;70.00;;;;;;4948486;28;20518;-74
2021/06/25 09:44:18;;;;;;;6.05;2.80;;;18.80;69.70;;;;;;4934863;28;20043;-74
2021/06/25 09:46:48;;;;;;;4.28;2.78;;;18.80;70.00;;;;;;4961497;28;20038;-74
2021/06/25 09:49:16;;;;;;;5.50;3.78;;;18.80;70.20;;;;;;4943457;28;20573;-74
2021/06/25 09:51:59;;;;;;;5.55;3.80;;;18.70;70.40;;;;;;4953700;28;20058;-74
2021/06/25 09:54:26;;;;;;;5.55;4.47;;;18.70;71.00;;;;;;4948983;28;20030;-73
2021/06/25 10:02:22;;;;;;;5.57;3.95;;;19.10;70.80;;;;;;4946700;28;20094;-75
2021/06/25 10:04:54;;;;;;;5.20;3.85;;;19.20;70.40;;;;;;4943709;28;20031;-73
2021/06/25 10:07:21;;;;;;;7.40;4.45;;;19.20;70.00;;;;;;4941973;28;20055;-76
2021/06/25 10:09:49;;;;;;;5.10;3.78;;;19.10;70.30;;;;;;4938866;28;20029;-73
2021/06/25 10:12:18;;;;;;;6.78;5.28;;;19.10;71.40;;;;;;4947493;28;20431;-75
2021/06/25 10:14:45;;;;;;;8.23;5.43;;;19.00;71.00;;;;;;4927548;28;20039;-74
2021/06/25 10:17:15;;;;;;;5.93;4.20;;;19.00;71.10;;;;;;4932609;28;20321;-77
2021/06/25 10:19:49;;;;;;;7.15;4.63;;;19.10;71.10;;;;;;4927551;28;20036;-77
2021/06/25 10:22:24;;;;;;;7.45;5.38;;;19.10;70.40;;;;;;4922222;28;20029;-76
2021/06/25 10:24:50;;;;;;;7.75;5.07;;;19.10;71.10;;;;;;4947090;28;20041;-77
2021/06/25 10:27:19;;;;;;;6.55;5.40;;;19.20;70.50;;;;;;4927922;28;20055;-75
2021/06/25 10:29:45;;;;;;;7.68;5.28;;;19.20;69.00;;;;;;4987964;28;20027;-76
2021/06/25 10:32:11;;;;;;;8.98;4.50;;;19.20;68.60;;;;;;4944694;28;20058;-75
2021/06/25 10:34:38;;;;;;;4.57;4.00;;;19.20;68.50;;;;;;4954815;28;20078;-75
2021/06/25 10:37:08;;;;;;;5.78;4.40;;;19.20;69.20;;;;;;4929454;28;20097;-75
2021/06/25 10:39:36;;;;;;;7.97;5.43;;;19.40;69.10;;;;;;4947051;28;20492;-72
2021/06/25 10:42:09;;;;;;;6.82;4.55;;;19.30;68.20;;;;;;4943475;28;20613;-72
2021/06/25 10:44:44;;;;;;;6.47;4.05;;;19.30;69.00;;;;;;4946518;28;20032;-71
2021/06/25 10:47:32;;;;;;;5.13;4.38;;;19.40;69.50;;;;;;4932822;28;20036;-73
2021/06/25 10:50:05;;;;;;;3.90;3.40;;;19.50;63.20;;;;;;4955984;28;20399;-72
2021/06/25 10:53:01;;;;;;;5.13;4.40;;;19.50;62.90;;;;;;4989130;28;20033;-70
2021/06/25 10:55:27;;;;;;;6.35;4.70;;;19.60;62.80;;;;;;4938882;28;20030;-71
2021/06/25 10:57:52;;;;;;;5.38;4.50;;;19.70;63.30;;;;;;4952566;28;20536;-71
2021/06/25 11:00:53;;;;;;;4.50;3.55;;;19.60;64.40;;;;;;4935149;28;20034;-75
2021/06/25 11:03:42;;;;;;;4.57;3.43;;;19.70;63.00;;;;;;4948657;28;20936;-76
2021/06/25 11:06:29;;;;;;;5.57;3.97;;;19.90;63.90;;;;;;4983396;28;20396;-74
2021/06/25 11:09:06;;;;;;;6.65;5.57;;;19.80;63.40;;;;;;4935955;28;20032;-74
2021/06/25 11:11:33;;;;;;;5.97;4.97;;;20.10;63.00;;;;;;4947513;28;20033;-73
2021/06/25 11:14:01;;;;;;;9.10;5.20;;;20.30;62.30;;;;;;4956268;28;20038;-71
2021/06/25 11:16:27;;;;;;;7.32;5.68;;;20.30;62.80;;;;;;4947808;28;20117;-73
2021/06/25 11:18:53;;;;;;;8.02;5.30;;;20.30;63.20;;;;;;4942945;28;20560;-73
2021/06/25 11:21:18;;;;;;;8.82;4.85;;;20.30;63.60;;;;;;4958806;28;20034;-74
2021/06/25 11:23:46;;;;;;;8.18;6.10;;;20.30;64.40;;;;;;4935026;28;20033;-75
2021/06/25 11:26:15;;;;;;;7.40;5.55;;;20.50;59.90;;;;;;4917716;28;20075;-75
2021/06/25 11:28:42;;;;;;;5.45;3.80;;;20.50;60.90;;;;;;4918709;28;20032;-77
2021/06/25 11:31:17;;;;;;;4.63;3.40;;;20.60;60.00;;;;;;4921488;28;20521;-76
2021/06/25 11:33:55;;;;;;;3.72;3.30;;;20.60;61.80;;;;;;4927540;28;20442;-76
2021/06/25 11:36:26;;;;;;;5.30;4.28;;;20.70;62.90;;;;;;4947679;28;20131;-75
2021/06/25 11:39:17;;;;;;;4.78;3.40;;;20.90;60.70;;;;;;4938093;28;20107;-76
2021/06/25 11:41:46;;;;;;;6.65;3.63;;;21.20;61.90;;;;;;4928760;28;20061;-72
2021/06/25 11:44:15;;;;;;;3.67;2.80;;;21.60;59.50;;;;;;4939222;28;20037;-72
2021/06/25 11:47:03;;;;;;;3.35;3.03;;;22.10;59.70;;;;;;4945950;28;20035;-70
2021/06/25 11:49:38;;;;;;;4.53;3.08;;;23.20;56.00;;;;;;5002599;28;20030;-70
2021/06/25 11:52:14;;;;;;;4.40;3.45;;;24.30;53.10;;;;;;4961483;28;20038;-70
2021/06/25 11:54:41;;;;;;;3.60;3.28;;;25.50;47.50;;;;;;4960121;28;20486;-71
2021/06/25 11:57:19;;;;;;;4.22;3.20;;;25.80;46.50;;;;;;4960364;28;20022;-72
2021/06/25 12:00:00;;;;;;;3.50;3.20;;;26.20;46.30;;;;;;4990853;28;20044;-72
2021/06/25 12:02:27;;;;;;;3.63;3.28;;;26.60;45.00;;;;;;4954358;28;20036;-72
2021/06/25 12:04:53;;;;;;;4.53;4.10;;;26.60;45.10;;;;;;4953113;28;20030;-72
2021/06/25 12:07:20;;;;;;;5.25;4.75;;;26.50;44.00;;;;;;4956914;28;20038;-72
2021/06/25 12:09:51;;;;;;;3.60;3.00;;;26.90;41.90;;;;;;4956358;28;20033;-71
2021/06/25 12:12:27;;;;;;;3.15;2.85;;;26.60;44.30;;;;;;4964811;28;20371;-72
2021/06/25 12:14:56;;;;;;;2.85;2.60;;;27.00;43.40;;;;;;4960882;28;20049;-71
2021/06/25 12:17:23;;;;;;;4.18;3.10;;;26.90;44.00;;;;;;4939353;28;20047;-72
2021/06/25 12:20:05;;;;;;;4.32;3.08;;;26.80;43.80;;;;;;4986136;28;20036;-71
2021/06/25 12:22:31;;;;;;;3.95;2.88;;;26.80;43.40;;;;;;4943135;28;20844;-73
2021/06/25 12:24:57;;;;;;;3.08;2.78;;;26.60;44.80;;;;;;4955051;28;20096;-73
2021/06/25 12:27:38;;;;;;;4.57;3.10;;;26.50;45.30;;;;;;4948716;28;20386;-71
2021/06/25 12:30:11;;;;;;;5.05;2.97;;;26.60;44.80;;;;;;4959182;28;20039;-72
2021/06/25 12:32:37;;;;;;;3.65;3.35;;;26.60;44.00;;;;;;4964101;28;20027;-71
2021/06/25 12:35:03;;;;;;;4.05;3.05;;;26.60;43.30;;;;;;4957954;28;20095;-72
2021/06/25 12:37:53;;;;;;;4.68;3.00;;;27.00;42.70;;;;;;4949638;28;20032;-72
2021/06/25 12:40:44;;;;;;;3.47;2.90;;;27.20;42.30;;;;;;4952558;28;20081;-72
2021/06/25 12:43:13;;;;;;;3.95;3.58;;;27.50;43.50;;;;;;4952633;28;20033;-75
2021/06/25 12:45:49;;;;;;;3.50;3.00;;;27.80;41.10;;;;;;4985427;28;20444;-73
2021/06/25 12:48:21;;;;;;;3.72;3.20;;;27.90;41.20;;;;;;4960658;28;20032;-74
2021/06/25 12:50:47;;;;;;;3.92;3.47;;;28.10;40.50;;;;;;4957353;28;20544;-74
2021/06/25 12:53:28;;;;;;;4.00;3.60;;;28.10;39.30;;;;;;4951896;28;20387;-74
2021/06/25 12:55:55;;;;;;;3.22;2.92;;;28.10;39.40;;;;;;4951426;28;20056;-72
2021/06/25 12:58:22;;;;;;;5.05;3.97;;;28.10;40.00;;;;;;4952787;28;20040;-73
2021/06/25 13:00:58;;;;;;;4.13;3.72;;;28.30;39.50;;;;;;4958845;28;20498;-72